Time;durP1;ratioP1;P1;durP2;ratioP2;P2;SDS_P1;SDS_P2;PMS_P1;PMS_P2;Temp;Humidity;BMP_temperature;BMP_pressure;BME280_temperature;BME280_humidity;BME280_pressure;Samples;Min_cycle;Max_cycle;Signal;HPM_P1;HPM_P2
2021/06/24 00:00:48;;;;;;;;;13.00;11.00;;;;;16.16;72.87;101875.88;4934127;28;45639;-79
2021/06/24 00:03:13;;;;;;;;;13.75;10.50;;;;;16.19;72.63;101874.88;4934389;28;45475;-79
2021/06/24 00:05:41;;;;;;;;;15.50;13.75;;;;;16.20;72.22;101875.72;4935230;28;45324;-80
2021/06/24 00:08:08;;;;;;;;;15.75;12.25;;;;;16.21;72.34;101877.44;4934843;28;45302;-78
2021/06/24 00:10:35;;;;;;;;;12.00;10.75;;;;;16.24;72.26;101880.81;4935097;28;45697;-79
2021/06/24 00:13:00;;;;;;;;;12.00;12.00;;;;;16.24;72.69;101883.47;4936533;28;47122;-80
2021/06/24 00:15:26;;;;;;;;;15.00;14.25;;;;;16.25;72.06;101873.72;4937874;28;45463;-80
2021/06/24 00:17:51;;;;;;;;;12.75;10.75;;;;;16.28;72.71;101878.84;4939396;28;45460;-79
2021/06/24 00:20:17;;;;;;;;;11.75;10.50;;;;;16.28;72.14;101868.25;4938587;28;45481;-80
2021/06/24 00:22:42;;;;;;;;;14.50;12.50;;;;;16.30;72.09;101872.56;4937452;28;46895;-80
2021/06/24 00:25:08;;;;;;;;;13.25;12.00;;;;;16.28;71.78;101861.16;4938135;28;45508;-79
2021/06/24 00:27:33;;;;;;;;;11.75;10.75;;;;;16.27;72.40;101867.38;4937550;28;45404;-80
2021/06/24 00:29:59;;;;;;;;;15.25;12.25;;;;;16.26;72.06;101856.88;4936948;28;45432;-80
2021/06/24 00:32:24;;;;;;;;;15.50;12.50;;;;;16.26;71.99;101855.06;4938073;28;45475;-79
2021/06/24 00:34:49;;;;;;;;;11.25;10.50;;;;;16.27;72.08;101848.81;4937374;28;45494;-79
2021/06/24 00:37:15;;;;;;;;;10.75;10.25;;;;;16.26;72.23;101854.22;4939478;28;45369;-80
2021/06/24 00:39:40;;;;;;;;;14.75;12.75;;;;;16.25;72.18;101856.00;4937317;28;45668;-80
2021/06/24 00:42:08;;;;;;;;;14.50;13.00;;;;;16.26;71.66;101854.22;4937437;28;47173;-80
2021/06/24 00:44:33;;;;;;;;;11.00;9.50;;;;;16.24;72.09;101848.13;4937523;28;45737;-79
2021/06/24 00:46:59;;;;;;;;;13.50;11.00;;;;;16.23;71.96;101847.25;4937465;28;45433;-80
2021/06/24 00:49:25;;;;;;;;;9.50;9.50;;;;;16.22;72.36;101847.34;4938557;28;45505;-80
2021/06/24 00:51:50;;;;;;;;;18.25;16.25;;;;;16.24;72.50;101845.47;4937984;28;46304;-79
2021/06/24 00:54:16;;;;;;;;;13.75;11.75;;;;;16.24;72.48;101837.53;4937102;28;45515;-80
2021/06/24 00:56:41;;;;;;;;;15.25;13.75;;;;;16.25;72.28;101842.75;4937970;28;45372;-79
2021/06/24 00:59:07;;;;;;;;;11.75;11.00;;;;;16.26;72.47;101844.47;4937569;28;45551;-80
2021/06/24 01:01:33;;;;;;;;;13.75;12.00;;;;;16.27;72.25;101843.50;4938114;28;46908;-78
2021/06/24 01:03:59;;;;;;;;;10.50;10.00;;;;;16.29;72.49;101839.00;4936225;28;45496;-80
2021/06/24 01:06:25;;;;;;;;;16.25;10.00;;;;;16.30;72.20;101848.69;4935817;28;45692;-80
2021/06/24 01:08:50;;;;;;;;;11.75;10.25;;;;;16.32;72.10;101843.28;4935444;28;45477;-79
2021/06/24 01:11:17;;;;;;;;;12.00;11.25;;;;;16.33;72.60;101840.56;4937909;28;46440;-80
2021/06/24 01:13:44;;;;;;;;;12.25;12.25;;;;;16.34;72.46;101833.44;4937047;28;45871;-79
2021/06/24 01:16:09;;;;;;;;;11.00;9.25;;;;;16.35;71.87;101835.19;4939002;28;45373;-80
2021/06/24 01:18:35;;;;;;;;;15.50;11.25;;;;;16.34;72.15;101837.00;4936236;28;45361;-78
2021/06/24 01:21:01;;;;;;;;;12.50;12.00;;;;;16.36;72.32;101834.25;4936186;28;47093;-79
2021/06/24 01:23:26;;;;;;;;;13.25;11.50;;;;;16.38;72.32;101835.03;4936860;28;45440;-77
2021/06/24 01:25:52;;;;;;;;;10.75;10.75;;;;;16.37;72.07;101825.34;4937001;28;45429;-79
2021/06/24 01:28:17;;;;;;;;;16.50;13.00;;;;;16.36;71.66;101828.94;4938582;28;45552;-80
2021/06/24 01:30:43;;;;;;;;;11.00;11.00;;;;;16.36;72.16;101823.66;4936829;28;46154;-80
2021/06/24 01:33:10;;;;;;;;;13.75;12.00;;;;;16.36;72.01;101819.19;4936666;28;45639;-79
2021/06/24 01:35:36;;;;;;;;;13.25;12.25;;;;;16.36;71.66;101819.19;4936675;28;45510;-79
2021/06/24 01:38:06;;;;;;;;;10.00;9.50;;;;;16.36;72.54;101815.69;4937176;28;45552;-80
2021/06/24 01:40:32;;;;;;;;;12.00;11.75;;;;;16.35;72.07;101806.00;4937597;28;46126;-79
2021/06/24 01:42:58;;;;;;;;;13.25;11.00;;;;;16.35;72.32;101808.66;4937377;28;45623;-80
2021/06/24 01:45:23;;;;;;;;;8.25;8.25;;;;;16.34;72.34;101806.94;4935716;28;45471;-80
2021/06/24 01:47:50;;;;;;;;;13.75;10.25;;;;;16.35;72.02;101806.00;4934948;28;45401;-80
2021/06/24 01:50:15;;;;;;;;;10.25;9.00;;;;;16.34;72.20;101813.13;4934769;28;46279;-78
2021/06/24 01:52:43;;;;;;;;;11.00;9.00;;;;;16.33;72.17;101802.56;4935590;28;45373;-78
2021/06/24 01:55:11;;;;;;;;;13.25;7.50;;;;;16.30;71.63;101806.25;4938041;28;45538;-80
2021/06/24 01:57:36;;;;;;;;;10.00;10.00;;;;;16.28;71.82;101796.63;4935505;28;45550;-79
2021/06/24 02:00:08;;;;;;;;;11.00;8.50;;;;;16.27;72.15;101801.06;4936143;28;45503;-79
2021/06/24 02:02:33;;;;;;;;;10.75;8.75;;;;;16.27;72.21;101802.88;4934230;28;45530;-79
2021/06/24 02:04:58;;;;;;;;;12.50;10.25;;;;;16.26;71.69;101799.38;4936325;28;45576;-79
2021/06/24 02:07:24;;;;;;;;;9.75;9.00;;;;;16.25;71.53;101807.41;4937667;28;45456;-78
2021/06/24 02:09:49;;;;;;;;;13.75;11.75;;;;;16.21;71.79;101801.38;4936330;28;45380;-80
2021/06/24 02:12:15;;;;;;;;;9.75;9.25;;;;;16.22;72.37;101802.25;4936079;28;45678;-79
2021/06/24 02:14:41;;;;;;;;;11.00;9.00;;;;;16.22;71.74;101791.63;4936166;28;45459;-78
2021/06/24 02:17:06;;;;;;;;;9.00;8.00;;;;;16.22;71.74;101786.31;4935596;28;45720;-79
2021/06/24 02:19:31;;;;;;;;;10.00;10.00;;;;;16.22;71.76;101778.38;4936022;28;45532;-79
2021/06/24 02:21:57;;;;;;;;;9.25;7.50;;;;;16.21;71.78;101784.63;4935448;28;45472;-79
2021/06/24 02:24:22;;;;;;;;;12.25;7.75;;;;;16.20;71.80;101781.09;4935895;28;45522;-79
2021/06/24 02:26:47;;;;;;;;;11.75;10.50;;;;;16.20;71.35;101781.09;4936600;28;45558;-80
2021/06/24 02:29:14;;;;;;;;;10.00;8.25;;;;;16.16;71.76;101787.50;4936087;28;47059;-79
2021/06/24 02:31:39;;;;;;;;;10.00;10.00;;;;;16.12;71.85;101785.91;4936776;28;45531;-78
2021/06/24 02:34:05;;;;;;;;;15.00;10.00;;;;;16.11;71.85;101778.91;4935701;28;45451;-78
2021/06/24 02:36:30;;;;;;;;;11.25;8.25;;;;;16.11;71.79;101779.75;4934453;28;45492;-79
2021/06/24 02:38:56;;;;;;;;;8.75;8.00;;;;;16.12;71.62;101780.63;4935875;28;46110;-79
2021/06/24 02:41:21;;;;;;;;;11.00;8.00;;;;;16.15;72.02;101780.47;4935899;28;45246;-79
2021/06/24 02:43:46;;;;;;;;;11.25;8.75;;;;;16.14;71.71;101778.78;4935858;28;45289;-79
2021/06/24 02:46:14;;;;;;;;;10.00;9.50;;;;;16.15;71.74;101781.34;4937071;28;45419;-78
2021/06/24 02:48:39;;;;;;;;;11.75;10.50;;;;;16.14;71.72;101782.28;4934598;28;47206;-79
2021/06/24 02:51:05;;;;;;;;;9.50;9.50;;;;;16.13;71.94;101780.56;4935649;28;45475;-79
2021/06/24 02:53:30;;;;;;;;;11.25;9.50;;;;;16.12;71.66;101775.31;4937041;28;45400;-78
2021/06/24 02:55:56;;;;;;;;;10.75;9.50;;;;;16.06;71.89;101779.13;4934413;28;45372;-79
2021/06/24 02:58:21;;;;;;;;;11.75;10.75;;;;;16.05;71.88;101781.88;4937558;28;47748;-78
2021/06/24 03:00:46;;;;;;;;;9.25;9.25;;;;;16.05;71.87;101776.56;4934481;28;45523;-79
2021/06/24 03:03:12;;;;;;;;;10.25;8.75;;;;;16.03;71.72;101773.13;4934409;28;45858;-79
2021/06/24 03:05:37;;;;;;;;;9.50;9.50;;;;;16.02;72.09;101774.91;4935064;28;45470;-78
2021/06/24 03:08:03;;;;;;;;;15.00;10.00;;;;;16.03;72.03;101773.13;4934589;28;45848;-79
2021/06/24 03:10:28;;;;;;;;;12.00;9.00;;;;;16.03;71.96;101774.00;4935539;28;45427;-79
2021/06/24 03:12:53;;;;;;;;;10.00;7.75;;;;;16.01;72.29;101769.69;4934876;28;45502;-79
2021/06/24 03:15:19;;;;;;;;;8.50;8.50;;;;;16.00;71.92;101775.94;4934164;28;45493;-79
2021/06/24 03:17:46;;;;;;;;;11.75;10.25;;;;;15.97;71.48;101771.63;4934766;28;45570;-78
2021/06/24 03:20:12;;;;;;;;;12.00;9.00;;;;;15.93;72.09;101772.72;4934230;28;45608;-79
2021/06/24 03:22:38;;;;;;;;;9.75;9.75;;;;;15.91;71.54;101774.56;4935440;28;45333;-79
2021/06/24 03:25:07;;;;;;;;;11.25;7.50;;;;;15.89;71.76;101777.31;4934927;28;45363;-79
2021/06/24 03:27:33;;;;;;;;;10.50;8.50;;;;;15.88;72.13;101780.91;4933921;28;46170;-79
2021/06/24 03:29:58;;;;;;;;;10.25;9.50;;;;;15.88;72.03;101780.91;4934112;28;45372;-79
2021/06/24 03:32:23;;;;;;;;;9.00;9.00;;;;;15.88;72.12;101775.59;4934461;28;45357;-79
2021/06/24 03:34:49;;;;;;;;;10.50;7.75;;;;;15.88;71.96;101774.75;4935210;28;45362;-79
2021/06/24 03:37:14;;;;;;;;;11.00;9.00;;;;;15.88;72.03;101775.59;4950611;28;46979;-79
2021/06/24 03:39:39;;;;;;;;;10.00;7.75;;;;;15.89;72.06;101779.97;4934386;28;45428;-79
2021/06/24 03:42:05;;;;;;;;;7.25;7.25;;;;;15.88;72.03;101775.59;4935160;28;45442;-79
2021/06/24 03:44:31;;;;;;;;;8.00;8.00;;;;;15.87;72.57;101768.59;4933813;28;45311;-79
2021/06/24 03:46:56;;;;;;;;;9.00;8.00;;;;;15.86;72.48;101769.50;4933737;28;45483;-79
2021/06/24 03:49:21;;;;;;;;;10.00;9.50;;;;;15.88;72.11;101770.28;4939681;28;45294;-80
2021/06/24 03:51:47;;;;;;;;;7.75;7.00;;;;;15.86;71.78;101764.19;4937109;28;45426;-79
2021/06/24 03:54:12;;;;;;;;;9.50;8.75;;;;;15.87;72.01;101763.28;4936174;28;45940;-79
2021/06/24 03:56:38;;;;;;;;;8.75;8.75;;;;;15.84;72.01;101763.41;4938003;28;46392;-80
2021/06/24 03:59:03;;;;;;;;;8.00;7.00;;;;;15.83;72.28;101766.16;4937663;28;45398;-80
2021/06/24 04:01:30;;;;;;;;;17.00;9.75;;;;;15.83;72.36;101766.16;4939989;28;45273;-79
2021/06/24 04:03:56;;;;;;;;;10.25;10.25;;;;;15.84;72.44;101770.50;4938388;28;45360;-79
2021/06/24 04:06:21;;;;;;;;;11.50;7.00;;;;;15.82;72.03;101775.91;4937618;28;46094;-79
2021/06/24 04:08:46;;;;;;;;;10.00;10.00;;;;;15.78;72.30;101771.66;4937468;28;45409;-79
2021/06/24 04:11:12;;;;;;;;;10.75;8.00;;;;;15.78;72.22;101771.66;4937039;28;45527;-79
2021/06/24 04:13:37;;;;;;;;;9.75;9.75;;;;;15.79;72.50;101770.72;4938848;28;45402;-78
2021/06/24 04:16:06;;;;;;;;;11.25;8.75;;;;;15.79;72.08;101760.13;4937187;28;46018;-79
2021/06/24 04:18:31;;;;;;;;;9.00;9.00;;;;;15.83;71.67;101772.31;4936966;28;45388;-79
2021/06/24 04:20:57;;;;;;;;;10.00;9.75;;;;;15.81;71.61;101766.22;4939346;28;45499;-79
2021/06/24 04:23:22;;;;;;;;;12.00;9.00;;;;;15.84;72.23;101775.81;4938601;28;45692;-80
2021/06/24 04:25:47;;;;;;;;;10.00;9.00;;;;;15.84;71.58;101768.72;4937677;28;46294;-79
2021/06/24 04:28:13;;;;;;;;;8.50;8.50;;;;;15.84;71.90;101767.88;4938767;28;45554;-79
2021/06/24 04:30:38;;;;;;;;;11.50;10.00;;;;;15.87;71.76;101780.97;4939847;28;45515;-80
2021/06/24 04:33:04;;;;;;;;;12.25;9.50;;;;;15.87;71.34;101784.50;4937191;28;45427;-80
2021/06/24 04:35:29;;;;;;;;;13.25;11.75;;;;;15.86;71.64;101780.09;4938978;28;47236;-80
2021/06/24 04:37:55;;;;;;;;;10.00;7.25;;;;;15.89;71.41;101782.59;4936276;28;45607;-79
2021/06/24 04:40:20;;;;;;;;;9.50;8.25;;;;;15.90;71.02;101778.16;4935367;28;45970;-80
2021/06/24 04:42:46;;;;;;;;;11.25;9.25;;;;;15.87;71.12;101787.13;4935353;28;45335;-80
2021/06/24 04:45:13;;;;;;;;;10.00;7.75;;;;;15.85;71.12;101783.69;4939529;28;46938;-80
2021/06/24 04:47:40;;;;;;;;;12.00;10.25;;;;;15.84;71.18;101789.94;4937818;28;45353;-80
2021/06/24 04:50:05;;;;;;;;;10.50;9.25;;;;;15.85;71.23;101794.28;4939039;28;45343;-80
2021/06/24 04:52:31;;;;;;;;;10.75;9.00;;;;;15.87;71.23;101789.78;4939176;28;45574;-80
2021/06/24 04:54:56;;;;;;;;;11.75;9.00;;;;;15.90;71.70;101794.94;4939024;28;51791;-80
2021/06/24 04:57:21;;;;;;;;;12.25;10.25;;;;;15.92;71.03;101786.88;4938056;28;45542;-80
2021/06/24 04:59:47;;;;;;;;;9.00;9.00;;;;;15.94;71.05;101790.34;4935704;28;45416;-79
2021/06/24 05:02:12;;;;;;;;;13.75;9.00;;;;;15.96;70.96;101790.25;4939024;28;45440;-80
2021/06/24 05:04:37;;;;;;;;;11.00;9.00;;;;;15.98;71.54;101788.41;4935430;28;47069;-80
2021/06/24 05:07:07;;;;;;;;;10.25;8.50;;;;;16.00;71.17;101791.84;4938688;28;45520;-78
2021/06/24 05:09:38;;;;;;;;;12.50;10.00;;;;;16.00;70.85;101800.66;4937214;28;45462;-79
2021/06/24 05:12:05;;;;;;;;;10.00;8.00;;;;;16.03;71.00;101797.84;4936712;28;45530;-80
2021/06/24 05:14:30;;;;;;;;;10.75;8.25;;;;;16.02;70.99;101796.13;4936747;28;46266;-80
2021/06/24 05:16:55;;;;;;;;;11.50;9.00;;;;;16.04;71.27;101799.56;4938619;28;45550;-80
2021/06/24 05:19:21;;;;;;;;;9.50;9.50;;;;;16.07;70.84;101794.09;4939223;28;45464;-79
2021/06/24 05:21:46;;;;;;;;;11.25;9.50;;;;;16.11;70.75;101789.50;4934623;28;49004;-79
2021/06/24 05:24:13;;;;;;;;;9.50;9.50;;;;;16.13;70.83;101795.59;4936315;28;46955;-79
2021/06/24 05:26:38;;;;;;;;;12.50;9.75;;;;;16.17;70.60;101794.50;4936668;28;45518;-79
2021/06/24 05:29:04;;;;;;;;;10.00;8.75;;;;;16.22;71.00;101792.50;4936839;28;45792;-79
2021/06/24 05:31:31;;;;;;;;;14.00;10.00;;;;;16.28;70.47;101789.53;4937999;28;45423;-79
2021/06/24 05:33:56;;;;;;;;;14.25;10.50;;;;;16.36;70.31;101790.00;4938131;28;47190;-79
2021/06/24 05:36:22;;;;;;;;;10.00;8.50;;;;;16.43;70.15;101787.91;4936444;28;45219;-80
2021/06/24 05:38:47;;;;;;;;;14.25;12.25;;;;;16.49;70.00;101792.88;4937523;28;45298;-79
2021/06/24 05:41:12;;;;;;;;;11.75;10.50;;;;;16.57;70.40;101787.22;4936477;28;45421;-80
2021/06/24 05:43:38;;;;;;;;;12.00;9.75;;;;;16.58;69.49;101780.97;4936812;28;47502;-78
2021/06/24 05:46:03;;;;;;;;;12.50;9.25;;;;;16.61;69.85;101788.78;4937848;28;45293;-78
2021/06/24 05:48:32;;;;;;;;;10.75;9.00;;;;;16.65;70.03;101790.31;4937054;28;45341;-78
2021/06/24 05:50:57;;;;;;;;;10.25;8.00;;;;;16.65;69.28;101790.31;4935572;28;45361;-78
2021/06/24 05:53:23;;;;;;;;;10.00;9.00;;;;;16.64;69.51;101799.22;4936701;28;45446;-79
2021/06/24 05:55:51;;;;;;;;;11.50;10.00;;;;;16.60;69.38;101801.19;4942969;28;45440;-77
2021/06/24 05:58:20;;;;;;;;;11.25;10.00;;;;;16.60;69.60;101801.19;4944765;28;45453;-79
2021/06/24 06:00:47;;;;;;;;;9.75;7.50;;;;;16.60;69.89;101800.31;4942955;28;45687;-77
2021/06/24 06:03:13;;;;;;;;;13.25;9.75;;;;;16.62;69.71;101803.75;4939705;28;46341;-78
2021/06/24 06:05:38;;;;;;;;;13.25;10.50;;;;;16.60;69.56;101816.22;4942621;28;45369;-77
2021/06/24 06:08:06;;;;;;;;;12.25;10.50;;;;;16.58;69.69;101810.16;4942923;28;45530;-77
2021/06/24 06:10:32;;;;;;;;;11.25;9.75;;;;;16.56;69.60;101814.69;4944215;28;45498;-75
2021/06/24 06:12:58;;;;;;;;;12.50;10.25;;;;;16.55;69.17;101811.19;4944708;28;45402;-78
2021/06/24 06:15:23;;;;;;;;;7.00;5.50;;;;;16.56;69.26;101812.03;4940487;28;45435;-79
2021/06/24 06:17:49;;;;;;;;;11.50;8.25;;;;;16.53;69.16;101814.84;4943477;28;45349;-79
2021/06/24 06:20:15;;;;;;;;;11.75;10.75;;;;;16.54;69.46;101820.06;4943842;28;45605;-77
2021/06/24 06:22:40;;;;;;;;;12.00;9.00;;;;;16.54;69.36;101821.84;4943194;28;46181;-79
2021/06/24 06:25:07;;;;;;;;;10.50;9.00;;;;;16.56;69.12;101827.97;4944366;28;45506;-78
2021/06/24 06:27:32;;;;;;;;;11.50;8.75;;;;;16.54;69.05;101824.50;4943200;28;45597;-78
2021/06/24 06:29:58;;;;;;;;;8.75;8.50;;;;;16.52;69.18;101832.56;4943276;28;45424;-78
2021/06/24 06:32:24;;;;;;;;;10.00;10.00;;;;;16.54;68.94;101824.50;4942833;28;46365;-78
2021/06/24 06:34:50;;;;;;;;;9.75;9.75;;;;;16.53;68.87;101828.09;4939886;28;45951;-78
2021/06/24 06:37:15;;;;;;;;;11.00;9.00;;;;;16.53;69.40;101828.94;4938136;28;45523;-78
2021/06/24 06:39:41;;;;;;;;;13.00;10.50;;;;;16.57;69.19;101833.19;4935968;28;45497;-78
2021/06/24 06:42:06;;;;;;;;;11.25;10.00;;;;;16.57;69.19;101833.19;4935323;28;46113;-79
2021/06/24 06:44:32;;;;;;;;;10.75;10.75;;;;;16.57;69.50;101838.50;4935168;28;45554;-78
2021/06/24 06:46:57;;;;;;;;;10.00;8.25;;;;;16.57;68.83;101842.94;4936262;28;45397;-78
2021/06/24 06:49:22;;;;;;;;;13.25;11.00;;;;;16.55;68.49;101839.47;4937487;28;45785;-78
2021/06/24 06:51:48;;;;;;;;;10.25;7.75;;;;;16.53;68.63;101838.72;4935855;28;46054;-78
2021/06/24 06:54:13;;;;;;;;;10.00;9.50;;;;;16.51;68.67;101840.59;4933680;28;46293;-77
2021/06/24 06:56:39;;;;;;;;;10.25;9.75;;;;;16.52;68.85;101831.69;4936053;28;45475;-78
2021/06/24 06:59:07;;;;;;;;;13.00;9.00;;;;;16.56;68.90;101838.56;4936114;28;45525;-77
2021/06/24 07:01:32;;;;;;;;;9.50;8.00;;;;;16.58;68.76;101839.34;4935087;28;46347;-78
2021/06/24 07:03:58;;;;;;;;;14.00;12.00;;;;;16.62;68.63;101836.47;4935570;28;45411;-78
2021/06/24 07:06:25;;;;;;;;;10.00;10.00;;;;;16.69;68.60;101844.97;4934904;28;45549;-80
2021/06/24 07:08:51;;;;;;;;;9.25;8.50;;;;;16.73;68.50;101835.94;4934797;28;45311;-78
2021/06/24 07:11:16;;;;;;;;;10.00;9.00;;;;;16.82;68.44;101850.56;4934564;28;46481;-78
2021/06/24 07:13:42;;;;;;;;;11.25;11.00;;;;;16.86;68.01;101850.31;4936205;28;45560;-78
2021/06/24 07:16:07;;;;;;;;;12.50;9.25;;;;;16.90;67.93;101856.31;4935317;28;45564;-78
2021/06/24 07:18:32;;;;;;;;;11.75;9.00;;;;;16.96;67.88;101850.69;4933459;28;45514;-77
2021/06/24 07:20:58;;;;;;;;;14.00;11.50;;;;;16.98;67.41;101842.66;4934314;28;49518;-78
2021/06/24 07:23:23;;;;;;;;;12.75;11.50;;;;;17.04;68.27;101848.50;4933651;28;45811;-78
2021/06/24 07:25:48;;;;;;;;;17.25;11.50;;;;;17.11;67.36;101847.22;4935382;28;45437;-77
2021/06/24 07:28:14;;;;;;;;;12.25;11.25;;;;;17.12;67.59;101840.09;4935995;28;45447;-78
2021/06/24 07:30:39;;;;;;;;;11.50;8.75;;;;;17.10;67.19;101842.00;4933368;28;45434;-77
2021/06/24 07:33:05;;;;;;;;;10.00;9.25;;;;;17.08;67.09;101854.50;4934137;28;45487;-76
2021/06/24 07:35:30;;;;;;;;;8.25;7.00;;;;;17.09;67.57;101857.09;4938451;28;45536;-76
2021/06/24 07:37:56;;;;;;;;;12.50;11.75;;;;;17.12;66.92;101851.63;4940718;28;45421;-79
2021/06/24 07:40:21;;;;;;;;;9.75;9.75;;;;;17.18;67.16;101853.09;4936356;28;47130;-77
2021/06/24 07:42:47;;;;;;;;;10.00;9.50;;;;;17.20;67.01;101849.41;4935066;28;45535;-76
2021/06/24 07:45:13;;;;;;;;;14.75;11.00;;;;;17.25;66.56;101848.31;4935219;28;45381;-77
2021/06/24 07:47:38;;;;;;;;;13.75;12.00;;;;;17.30;66.57;101851.56;4933774;28;45534;-77
2021/06/24 07:50:05;;;;;;;;;12.25;8.00;;;;;17.37;66.99;101858.25;4934959;28;47709;-78
2021/06/24 07:52:30;;;;;;;;;10.50;10.25;;;;;17.43;66.30;101855.28;4935613;28;45276;-78
2021/06/24 07:54:55;;;;;;;;;11.50;11.50;;;;;17.48;66.34;101858.53;4935510;28;45482;-78
2021/06/24 07:57:21;;;;;;;;;9.75;9.75;;;;;17.56;66.79;101858.16;4935183;28;45407;-79
2021/06/24 07:59:48;;;;;;;;;11.25;10.50;;;;;17.64;66.93;101855.91;4935980;28;45950;-77
2021/06/24 08:02:13;;;;;;;;;12.00;10.00;;;;;17.70;66.72;101866.22;4936176;28;45485;-77
2021/06/24 08:04:39;;;;;;;;;18.00;11.00;;;;;17.78;66.44;101866.69;4934448;28;45609;-78
2021/06/24 08:07:04;;;;;;;;;14.50;11.25;;;;;17.82;66.12;101868.25;4936032;28;45313;-77
2021/06/24 08:09:30;;;;;;;;;17.25;11.75;;;;;17.84;65.62;101862.81;4935529;28;46246;-75
2021/06/24 08:11:55;;;;;;;;;14.25;11.75;;;;;17.90;65.55;101859.81;4935532;28;45547;-75
2021/06/24 08:14:21;;;;;;;;;10.25;10.00;;;;;17.96;65.72;101864.81;4935685;28;45397;-78
2021/06/24 08:16:47;;;;;;;;;13.00;11.00;;;;;18.05;65.48;101855.44;4934640;28;45407;-75
2021/06/24 08:19:12;;;;;;;;;16.25;11.50;;;;;18.13;65.20;101854.09;4935702;28;46304;-74
2021/06/24 08:21:38;;;;;;;;;14.75;11.25;;;;;18.21;65.79;101850.97;4937099;28;45323;-76
2021/06/24 08:24:03;;;;;;;;;14.75;13.75;;;;;18.29;65.67;101856.72;4941411;28;45465;-76
2021/06/24 08:26:29;;;;;;;;;11.75;11.00;;;;;18.34;65.51;101853.78;4935338;28;45547;-76
2021/06/24 08:28:55;;;;;;;;;11.00;10.50;;;;;18.41;64.69;101855.16;4935402;28;46919;-77
2021/06/24 08:31:20;;;;;;;;;13.25;12.00;;;;;18.50;64.92;101858.13;4944550;28;45365;-77
2021/06/24 08:33:46;;;;;;;;;16.75;13.50;;;;;18.63;65.00;101857.41;4935351;28;45520;-77
2021/06/24 08:36:11;;;;;;;;;13.75;12.25;;;;;18.79;64.56;101858.25;4940241;28;47954;-76
2021/06/24 08:38:37;;;;;;;;;13.00;12.25;;;;;18.96;64.18;101865.25;4938363;28;46336;-76
2021/06/24 08:41:02;;;;;;;;;16.50;13.25;;;;;19.09;63.98;101855.53;4938230;28;45369;-76
2021/06/24 08:43:28;;;;;;;;;12.50;11.50;;;;;19.25;63.65;101863.47;4938983;28;45245;-77
2021/06/24 08:45:59;;;;;;;;;14.75;12.00;;;;;19.42;64.04;101852.63;4937917;28;45566;-77
2021/06/24 08:48:25;;;;;;;;;17.00;15.00;;;;;19.55;62.93;101863.38;4937210;28;46555;-77
2021/06/24 08:50:50;;;;;;;;;16.50;13.00;;;;;19.68;62.48;101855.47;4935930;28;45705;-77
2021/06/24 08:53:20;;;;;;;;;19.00;15.25;;;;;19.78;62.65;101854.81;4937686;28;45440;-77
2021/06/24 08:55:51;;;;;;;;;17.00;14.75;;;;;19.86;62.56;101856.13;4938505;28;45578;-76
2021/06/24 08:58:16;;;;;;;;;15.00;11.50;;;;;19.90;62.28;101861.16;4938883;28;47059;-76
2021/06/24 09:00:42;;;;;;;;;17.25;14.00;;;;;19.91;61.60;101862.88;4937376;28;45438;-78
2021/06/24 09:03:28;;;;;;;;;16.75;14.25;;;;;19.90;61.79;101866.50;4936457;28;45467;-77
2021/06/24 09:06:05;;;;;;;;;21.75;17.75;;;;;19.85;61.34;101867.75;4937065;28;45252;-77
2021/06/24 09:08:36;;;;;;;;;14.75;13.75;;;;;19.79;61.91;101869.00;4939606;28;45998;-76
2021/06/24 09:11:15;;;;;;;;;17.50;14.50;;;;;19.78;61.27;101865.50;4937238;28;45383;-77
2021/06/24 09:13:42;;;;;;;;;15.75;13.75;;;;;19.87;61.27;101876.50;4937602;28;45427;-76
2021/06/24 09:16:34;;;;;;;;;15.75;12.00;;;;;19.93;61.33;101868.09;4937444;28;45434;-76
2021/06/24 09:19:16;;;;;;;;;16.50;15.25;;;;;20.06;61.56;101877.91;4944061;28;46173;-76
2021/06/24 09:22:03;;;;;;;;;16.00;13.00;;;;;20.23;60.70;101875.94;4937378;28;45781;-80
2021/06/24 09:24:33;;;;;;;;;13.25;11.25;;;;;20.24;60.61;101872.31;4934303;28;45520;-78
2021/06/24 09:27:05;;;;;;;;;13.00;10.50;;;;;20.27;60.79;101880.97;4937235;28;45526;-77
2021/06/24 09:29:30;;;;;;;;;14.00;12.50;;;;;20.35;60.72;101875.13;4937495;28;47048;-78
2021/06/24 09:31:58;;;;;;;;;16.25;11.00;;;;;20.43;61.21;101878.16;4927665;28;45488;-77
2021/06/24 09:34:25;;;;;;;;;16.50;13.25;;;;;20.53;60.96;101871.28;4938608;28;45319;-78
2021/06/24 09:36:53;;;;;;;;;15.00;12.50;;;;;20.67;60.39;101870.34;4950950;28;45590;-77
2021/06/24 09:39:32;;;;;;;;;16.50;13.75;;;;;20.85;60.15;101871.78;4936451;28;47032;-77
2021/06/24 09:42:03;;;;;;;;;15.75;13.25;;;;;21.05;59.53;101874.91;4936527;28;46875;-77
2021/06/24 09:44:30;;;;;;;;;13.00;12.75;;;;;21.16;59.31;101882.19;4939796;28;45338;-77
2021/06/24 09:46:56;;;;;;;;;13.25;12.00;;;;;21.19;58.95;101874.78;4936270;28;45542;-78
2021/06/24 09:49:33;;;;;;;;;14.00;12.75;;;;;21.27;59.29;101875.13;4938133;28;46372;-77
2021/06/24 09:52:00;;;;;;;;;12.00;10.00;;;;;21.30;58.71;101880.28;4936882;28;45487;-78
2021/06/24 09:54:34;;;;;;;;;13.25;11.50;;;;;21.27;58.16;101880.47;4934638;28;45373;-75
2021/06/24 09:57:03;;;;;;;;;11.50;11.50;;;;;21.33;58.84;101880.06;4936926;28;45515;-78
2021/06/24 09:59:33;;;;;;;;;16.00;14.25;;;;;21.42;58.50;101883.91;4936529;28;46044;-77
2021/06/24 10:02:06;;;;;;;;;15.25;11.25;;;;;21.60;58.53;101887.09;4938843;28;45349;-77
2021/06/24 10:04:31;;;;;;;;;14.50;12.00;;;;;21.75;58.05;101888.69;4937510;28;45451;-77
2021/06/24 10:07:03;;;;;;;;;14.50;11.25;;;;;21.83;57.76;101882.78;4937015;28;45467;-78
2021/06/24 10:09:30;;;;;;;;;11.25;10.00;;;;;21.86;57.18;101883.41;4934262;28;46026;-79
2021/06/24 10:11:56;;;;;;;;;11.00;11.00;;;;;21.92;57.59;101886.59;4935850;28;47891;-76
2021/06/24 10:14:22;;;;;;;;;13.50;9.75;;;;;21.92;56.95;101891.94;4935456;28;45523;-77
2021/06/24 10:16:53;;;;;;;;;15.75;9.75;;;;;21.92;56.94;101889.28;4935839;28;45411;-77
2021/06/24 10:19:28;;;;;;;;;11.25;10.00;;;;;21.95;57.32;101892.59;4937853;28;46271;-76
2021/06/24 10:21:58;;;;;;;;;12.00;11.00;;;;;21.91;56.42;101890.25;4936935;28;45646;-76
2021/06/24 10:24:38;;;;;;;;;10.50;9.50;;;;;21.87;56.45;101890.50;4936273;28;45569;-76
2021/06/24 10:27:07;;;;;;;;;12.75;11.50;;;;;21.99;56.32;101888.75;4936105;28;45494;-76
2021/06/24 10:29:48;;;;;;;;;13.50;10.50;;;;;22.19;56.44;101895.34;4935398;28;45807;-76
2021/06/24 10:32:33;;;;;;;;;14.50;11.50;;;;;22.42;55.33;101885.59;4936136;28;45384;-76
2021/06/24 10:35:07;;;;;;;;;15.50;10.50;;;;;22.71;55.49;101880.75;4921327;28;45491;-76
2021/06/24 10:37:34;;;;;;;;;13.50;10.00;;;;;22.96;55.85;101893.13;4936582;28;45405;-76
2021/06/24 10:40:21;;;;;;;;;14.25;9.50;;;;;23.12;54.32;101895.47;4936632;28;46366;-76
2021/06/24 10:42:52;;;;;;;;;15.00;13.25;;;;;23.25;54.16;101890.03;4935814;28;45605;-76
2021/06/24 10:45:17;;;;;;;;;14.50;13.00;;;;;23.32;54.54;101888.56;4935783;28;45617;-75
2021/06/24 10:47:43;;;;;;;;;14.00;13.00;;;;;23.35;53.39;101897.22;4934270;28;45432;-75
2021/06/24 10:50:27;;;;;;;;;14.50;11.25;;;;;23.42;53.63;101881.50;4935641;28;46824;-77
2021/06/24 10:53:12;;;;;;;;;12.75;10.00;;;;;23.60;52.80;101882.72;4920396;28;45381;-77
2021/06/24 10:55:40;;;;;;;;;14.00;11.00;;;;;23.76;52.81;101879.69;4935274;28;45385;-76
2021/06/24 10:58:11;;;;;;;;;16.75;14.25;;;;;23.91;51.90;101882.97;4936426;28;45416;-76
2021/06/24 11:00:44;;;;;;;;;11.50;11.00;;;;;24.05;51.98;101885.38;4934386;28;45539;-76
2021/06/24 11:03:14;;;;;;;;;10.50;8.75;;;;;24.23;52.26;101882.19;4935516;28;47388;-77
2021/06/24 11:05:40;;;;;;;;;13.00;11.75;;;;;24.49;51.81;101888.94;4935756;28;45393;-76
2021/06/24 11:08:26;;;;;;;;;12.50;10.75;;;;;24.83;50.97;101873.50;4935634;28;45679;-76
2021/06/24 11:10:52;;;;;;;;;15.50;15.00;;;;;25.17;50.61;101876.88;4935886;28;45480;-77
2021/06/24 11:13:42;;;;;;;;;11.25;11.25;;;;;25.41;50.03;101871.16;4936250;28;45369;-76